createdAt,value
2022-10-02T00:00:34.040Z,191.84
2022-10-02T00:01:19.023Z,187.87
2022-10-02T00:02:03.947Z,216.69
2022-10-02T00:02:49.414Z,190.85
2022-10-02T00:03:34.366Z,191.84
2022-10-02T00:04:19.475Z,179.92
2022-10-02T00:05:04.489Z,217.69
2022-10-02T00:05:49.283Z,184.89
2022-10-02T00:06:34.901Z,189.86
2022-10-02T00:07:19.651Z,206.75
2022-10-02T00:08:04.605Z,191.84
2022-10-02T00:08:49.579Z,188.86
2022-10-02T00:09:34.581Z,212.72
2022-10-02T00:10:19.770Z,179.92
2022-10-02T00:11:04.725Z,184.89
2022-10-02T00:11:49.783Z,185.88
2022-10-02T00:12:34.637Z,186.87
2022-10-02T00:13:19.585Z,207.75
2022-10-02T00:14:04.667Z,183.89
2022-10-02T00:14:49.839Z,174.95
2022-10-02T00:15:35.066Z,197.81
2022-10-02T00:16:20.155Z,200.79
2022-10-02T00:17:05.080Z,195.82
2022-10-02T00:17:50.028Z,166.00
2022-10-02T00:18:34.984Z,210.73
2022-10-02T00:19:20.318Z,201.78
2022-10-02T00:20:05.145Z,206.75
2022-10-02T00:20:50.358Z,211.72
2022-10-02T00:21:35.313Z,193.83
2022-10-02T00:22:20.267Z,208.74
2022-10-02T00:23:05.222Z,220.67
2022-10-02T00:23:50.797Z,191.84
2022-10-02T00:24:35.587Z,182.90
2022-10-02T00:25:20.235Z,192.84
2022-10-02T00:26:05.404Z,196.81
2022-10-02T00:26:50.707Z,208.74
2022-10-02T00:27:35.559Z,195.82
2022-10-02T00:28:21.205Z,174.95
2022-10-02T00:29:05.873Z,196.81
2022-10-02T00:29:50.832Z,188.86
2022-10-02T00:30:36.073Z,196.81
2022-10-02T00:31:21.023Z,208.74
2022-10-02T00:32:06.148Z,193.83
2022-10-02T00:32:51.067Z,232.60
2022-10-02T00:33:36.589Z,196.81
2022-10-02T00:34:21.857Z,211.72
2022-10-02T00:35:06.327Z,213.71
2022-10-02T00:35:51.283Z,202.78
2022-10-02T00:36:36.469Z,190.85
2022-10-02T00:37:21.409Z,188.86
2022-10-02T00:38:06.146Z,178.92
2022-10-02T00:38:51.507Z,178.92
2022-10-02T00:39:36.562Z,192.84
2022-10-02T00:40:21.725Z,195.82
2022-10-02T00:41:06.265Z,197.81
2022-10-02T00:41:51.225Z,188.86
2022-10-02T00:42:36.588Z,196.81
2022-10-02T00:43:22.109Z,203.77
2022-10-02T00:44:06.805Z,184.89
2022-10-02T00:44:51.653Z,216.69
2022-10-02T00:45:36.995Z,182.90
2022-10-02T00:46:22.175Z,209.74
2022-10-02T00:47:06.723Z,201.78
2022-10-02T00:47:51.829Z,181.90
2022-10-02T00:48:36.934Z,179.92
2022-10-02T00:49:22.213Z,187.87
2022-10-02T00:50:06.946Z,200.79
2022-10-02T00:50:52.511Z,212.72
2022-10-02T00:51:37.568Z,209.74
2022-10-02T00:52:22.520Z,184.89
2022-10-02T00:53:07.269Z,173.95
2022-10-02T00:53:52.328Z,193.83
2022-10-02T00:54:37.442Z,213.71
2022-10-02T00:55:22.860Z,192.84
2022-10-02T00:56:07.601Z,197.81
2022-10-02T00:56:52.550Z,168.98
2022-10-02T00:57:37.769Z,203.77
2022-10-02T00:58:22.955Z,201.78
2022-10-02T00:59:07.825Z,188.86
2022-10-02T00:59:52.863Z,175.94
2022-10-02T01:00:37.945Z,199.80
2022-10-02T01:01:23.020Z,193.83
2022-10-02T01:02:08.455Z,183.89
2022-10-02T01:02:53.313Z,193.83
2022-10-02T01:03:38.161Z,187.87
2022-10-02T01:04:23.308Z,190.85
2022-10-02T01:05:08.690Z,174.95
2022-10-02T01:05:53.540Z,164.01
2022-10-02T01:06:38.787Z,168.98
2022-10-02T01:07:24.060Z,192.84
2022-10-02T01:08:08.604Z,175.94
2022-10-02T01:08:53.537Z,196.81
2022-10-02T01:09:38.478Z,203.77
2022-10-02T01:10:24.082Z,215.70
2022-10-02T01:11:08.837Z,202.78
2022-10-02T01:11:53.886Z,181.90
2022-10-02T01:12:38.741Z,186.87
2022-10-02T01:13:24.405Z,192.84
2022-10-02T01:14:08.958Z,195.82
2022-10-02T01:14:54.214Z,194.83
2022-10-02T01:15:39.092Z,203.77
2022-10-02T01:16:24.811Z,184.89
2022-10-02T01:17:09.294Z,182.90
2022-10-02T01:17:54.311Z,187.87
2022-10-02T01:18:39.404Z,192.84
2022-10-02T01:19:24.553Z,184.89
2022-10-02T01:20:09.344Z,182.90
2022-10-02T01:20:54.771Z,176.93
2022-10-02T01:21:39.629Z,189.86
2022-10-02T01:22:24.577Z,183.89
2022-10-02T01:23:09.941Z,191.84
2022-10-02T01:23:54.889Z,195.82
2022-10-02T01:24:39.945Z,193.83
2022-10-02T01:25:24.891Z,189.86
2022-10-02T01:26:09.959Z,186.87
2022-10-02T01:26:55.217Z,192.84
2022-10-02T01:27:40.383Z,186.87
2022-10-02T01:28:25.074Z,187.87
2022-10-02T01:29:10.079Z,206.75
2022-10-02T01:29:55.492Z,198.80
2022-10-02T01:30:40.500Z,207.75
2022-10-02T01:31:25.352Z,193.83
2022-10-02T01:32:10.372Z,200.79
2022-10-02T01:32:55.815Z,201.78
2022-10-02T01:33:40.729Z,197.81
2022-10-02T01:34:25.685Z,193.83
2022-10-02T01:35:11.059Z,208.74
2022-10-02T01:35:55.979Z,195.82
2022-10-02T01:36:40.910Z,209.74
2022-10-02T01:37:25.866Z,191.84
2022-10-02T01:38:11.069Z,213.71
2022-10-02T01:38:55.916Z,196.81
2022-10-02T01:39:40.886Z,182.90
2022-10-02T01:40:26.235Z,210.73
2022-10-02T01:41:11.157Z,197.81
2022-10-02T01:41:56.248Z,203.77
2022-10-02T01:42:41.605Z,187.87
2022-10-02T01:43:26.589Z,195.82
2022-10-02T01:44:11.332Z,186.87
2022-10-02T01:44:56.576Z,177.93
2022-10-02T01:45:41.401Z,197.81
2022-10-02T01:46:27.507Z,199.80
2022-10-02T01:47:11.812Z,214.71
2022-10-02T01:47:56.693Z,181.90
2022-10-02T01:48:41.859Z,170.97
2022-10-02T01:49:26.818Z,187.87
2022-10-02T01:50:11.871Z,188.86
2022-10-02T01:50:56.719Z,193.83
2022-10-02T01:51:42.085Z,193.83
2022-10-02T01:52:27.242Z,198.80
2022-10-02T01:53:12.195Z,195.82
2022-10-02T01:53:57.352Z,219.68
2022-10-02T01:54:42.069Z,227.63
2022-10-02T01:55:27.469Z,203.77
2022-10-02T01:56:12.423Z,198.80
2022-10-02T01:56:57.482Z,170.97
2022-10-02T01:57:42.529Z,197.81
2022-10-02T01:58:27.487Z,179.92
2022-10-02T01:59:12.859Z,179.92
2022-10-02T01:59:57.806Z,201.78
2022-10-02T02:00:42.600Z,189.86
2022-10-02T02:01:27.811Z,151.09
2022-10-02T02:02:12.830Z,145.13
2022-10-02T02:02:57.716Z,174.95
2022-10-02T02:03:42.887Z,195.82
2022-10-02T02:04:27.991Z,185.88
2022-10-02T02:05:12.587Z,179.92
2022-10-02T02:05:57.950Z,187.87
2022-10-02T02:06:43.002Z,182.90
2022-10-02T02:07:28.065Z,184.89
2022-10-02T02:08:12.910Z,191.84
2022-10-02T02:09:01.702Z,192.84
2022-10-02T02:09:42.976Z,218.68
2022-10-02T02:10:28.117Z,180.91
2022-10-02T02:11:12.936Z,190.85
2022-10-02T02:11:58.199Z,194.83
2022-10-02T02:12:43.452Z,176.93
2022-10-02T02:13:28.721Z,181.90
2022-10-02T02:14:13.333Z,188.86
2022-10-02T02:14:58.386Z,198.80
2022-10-02T02:15:43.280Z,197.81
2022-10-02T02:16:28.607Z,172.96
2022-10-02T02:17:13.694Z,214.71
2022-10-02T02:17:58.752Z,180.91
2022-10-02T02:18:43.604Z,194.83
2022-10-02T02:19:28.671Z,192.84
2022-10-02T02:20:13.720Z,199.80
2022-10-02T02:20:58.874Z,170.97
2022-10-02T02:21:43.933Z,194.83
2022-10-02T02:22:28.663Z,192.84
2022-10-02T02:23:13.838Z,176.93
2022-10-02T02:23:58.898Z,185.88
2022-10-02T02:24:44.157Z,210.73
2022-10-02T02:25:29.341Z,199.80
2022-10-02T02:26:14.168Z,187.87
2022-10-02T02:26:59.218Z,192.84
2022-10-02T02:27:44.279Z,212.72
2022-10-02T02:28:29.573Z,185.88
2022-10-02T02:29:14.639Z,180.91
2022-10-02T02:29:59.288Z,181.90
2022-10-02T02:30:44.617Z,193.83
2022-10-02T02:31:29.814Z,215.70
2022-10-02T02:32:14.829Z,189.86
2022-10-02T02:32:59.983Z,181.90
2022-10-02T02:33:44.725Z,187.87
2022-10-02T02:34:29.895Z,182.90
2022-10-02T02:35:14.750Z,179.92
2022-10-02T02:35:59.918Z,171.96
2022-10-02T02:36:44.957Z,190.85
2022-10-02T02:37:30.219Z,195.82
2022-10-02T02:38:15.072Z,212.72
2022-10-02T02:39:00.123Z,213.71
2022-10-02T02:39:44.982Z,181.90
2022-10-02T02:40:30.342Z,180.91
2022-10-02T02:41:15.293Z,206.75
2022-10-02T02:42:00.352Z,193.83
2022-10-02T02:42:45.306Z,195.82
2022-10-02T02:43:30.500Z,186.87
2022-10-02T02:44:15.461Z,200.79
2022-10-02T02:45:00.680Z,191.84
2022-10-02T02:45:45.676Z,186.87
2022-10-02T02:46:30.795Z,204.77
2022-10-02T02:47:15.538Z,192.84
2022-10-02T02:48:00.908Z,200.79
2022-10-02T02:48:45.761Z,195.82
2022-10-02T02:49:31.015Z,190.85
2022-10-02T02:50:15.973Z,205.76
2022-10-02T02:51:01.235Z,211.72
2022-10-02T02:51:46.195Z,201.78
2022-10-02T02:52:31.247Z,198.80
2022-10-02T02:53:16.103Z,189.86
2022-10-02T02:54:01.562Z,198.80
2022-10-02T02:54:46.068Z,204.77
2022-10-02T02:55:31.466Z,187.87
2022-10-02T02:56:16.452Z,179.92
2022-10-02T02:57:01.587Z,185.88
2022-10-02T02:57:46.250Z,198.80
2022-10-02T02:58:31.797Z,197.81
2022-10-02T02:59:16.858Z,225.64
2022-10-02T03:00:01.905Z,201.78
2022-10-02T03:00:46.769Z,187.87
2022-10-02T03:01:32.008Z,189.86
2022-10-02T03:02:16.909Z,220.67
2022-10-02T03:03:02.135Z,179.92
2022-10-02T03:03:47.107Z,208.74
2022-10-02T03:04:32.035Z,210.73
2022-10-02T03:05:17.301Z,220.67
2022-10-02T03:06:02.263Z,209.74
2022-10-02T03:06:47.212Z,219.68
2022-10-02T03:07:32.269Z,218.68
2022-10-02T03:08:17.534Z,222.66
2022-10-02T03:09:02.570Z,241.54
2022-10-02T03:09:47.644Z,213.71
2022-10-02T03:10:32.641Z,235.58
2022-10-02T03:11:17.445Z,224.65
2022-10-02T03:12:02.609Z,218.68
2022-10-02T03:12:47.974Z,219.68
2022-10-02T03:13:32.618Z,220.67
2022-10-02T03:14:17.774Z,221.66
2022-10-02T03:15:02.696Z,213.71
2022-10-02T03:15:47.446Z,214.71
2022-10-02T03:16:32.742Z,237.57
2022-10-02T03:17:17.723Z,215.70
2022-10-02T03:18:03.671Z,215.70
2022-10-02T03:18:48.112Z,198.80
2022-10-02T03:19:33.069Z,225.64
2022-10-02T03:20:17.816Z,210.73
2022-10-02T03:21:03.030Z,206.75
2022-10-02T03:21:48.157Z,217.69
2022-10-02T03:22:33.484Z,225.64
2022-10-02T03:23:18.450Z,220.67
2022-10-02T03:24:03.301Z,207.75
2022-10-02T03:24:48.362Z,226.63
2022-10-02T03:25:33.333Z,213.71
2022-10-02T03:26:18.683Z,216.69
2022-10-02T03:27:03.629Z,225.64
2022-10-02T03:27:48.632Z,193.83
2022-10-02T03:28:54.378Z,202.78
2022-10-02T03:29:18.634Z,204.77
2022-10-02T03:30:03.655Z,205.76
2022-10-02T03:30:48.507Z,217.69
2022-10-02T03:31:33.739Z,185.88
2022-10-02T03:32:18.717Z,216.69
2022-10-02T03:33:03.981Z,212.72
2022-10-02T03:33:49.038Z,180.91
2022-10-02T03:34:33.716Z,202.78
2022-10-02T03:35:19.015Z,189.86
2022-10-02T03:36:03.697Z,203.77
2022-10-02T03:36:48.954Z,184.89
2022-10-02T03:37:34.122Z,206.75
2022-10-02T03:38:19.185Z,194.83
2022-10-02T03:39:24.274Z,192.84
2022-10-02T03:39:49.224Z,205.76
2022-10-02T03:40:34.237Z,206.75
2022-10-02T03:41:19.501Z,206.75
2022-10-02T03:42:04.468Z,196.81
2022-10-02T03:42:49.512Z,202.78
2022-10-02T03:43:34.463Z,220.67
2022-10-02T03:44:19.519Z,216.69
2022-10-02T03:45:04.825Z,216.69
2022-10-02T03:45:51.327Z,209.74
2022-10-02T03:46:35.071Z,191.84
2022-10-02T03:47:19.951Z,193.83
2022-10-02T03:48:04.910Z,210.73
2022-10-02T03:48:49.705Z,210.73
2022-10-02T03:49:34.816Z,212.72
2022-10-02T03:50:19.978Z,197.81
2022-10-02T03:51:05.235Z,222.66
2022-10-02T03:51:50.198Z,211.72
2022-10-02T03:52:34.993Z,211.72
2022-10-02T03:53:20.198Z,175.94
2022-10-02T03:54:05.047Z,205.76
2022-10-02T03:54:50.214Z,206.75
2022-10-02T03:55:35.082Z,202.78
2022-10-02T03:56:20.119Z,195.82
2022-10-02T03:57:05.491Z,185.88
2022-10-02T03:57:50.538Z,208.74
2022-10-02T03:58:35.297Z,200.79
2022-10-02T03:59:20.443Z,187.87
2022-10-02T04:00:05.709Z,211.72
2022-10-02T04:00:50.796Z,201.78
2022-10-02T04:01:35.997Z,212.72
2022-10-02T04:02:20.806Z,220.67
2022-10-02T04:03:06.046Z,206.75
2022-10-02T04:03:50.813Z,194.83
2022-10-02T04:04:35.841Z,210.73
2022-10-02T04:05:20.791Z,187.87
2022-10-02T04:06:06.005Z,201.78
2022-10-02T04:06:51.006Z,199.80
2022-10-02T04:07:36.068Z,201.78
2022-10-02T04:08:21.137Z,192.84
2022-10-02T04:09:06.486Z,203.77
2022-10-02T04:09:51.447Z,203.77
2022-10-02T04:10:36.500Z,219.68
2022-10-02T04:11:21.267Z,200.79
2022-10-02T04:12:06.301Z,187.87
2022-10-02T04:12:51.503Z,191.84
2022-10-02T04:13:36.679Z,204.77
2022-10-02T04:14:21.578Z,188.86
2022-10-02T04:15:06.525Z,201.78
2022-10-02T04:15:51.799Z,212.72
2022-10-02T04:16:36.911Z,209.74
2022-10-02T04:17:21.799Z,203.77
2022-10-02T04:18:06.768Z,210.73
2022-10-02T04:18:52.013Z,214.71
2022-10-02T04:19:37.081Z,209.74
2022-10-02T04:20:21.818Z,225.64
2022-10-02T04:21:06.980Z,210.73
2022-10-02T04:21:52.963Z,211.72
2022-10-02T04:22:37.397Z,198.80
2022-10-02T04:23:22.457Z,226.63
2022-10-02T04:24:07.122Z,202.78
2022-10-02T04:24:52.362Z,217.69
2022-10-02T04:25:37.517Z,219.68
2022-10-02T04:26:22.768Z,206.75
2022-10-02T04:27:07.532Z,203.77
2022-10-02T04:27:52.722Z,203.77
2022-10-02T04:28:37.745Z,226.63
2022-10-02T04:29:22.805Z,206.75
2022-10-02T04:30:08.068Z,211.72
2022-10-02T04:30:53.021Z,212.72
2022-10-02T04:31:38.160Z,197.81
2022-10-02T04:32:23.029Z,192.84
2022-10-02T04:33:08.105Z,215.70
2022-10-02T04:33:53.051Z,212.72
2022-10-02T04:34:38.282Z,193.83
2022-10-02T04:35:23.455Z,217.69
2022-10-02T04:36:08.518Z,226.63
2022-10-02T04:36:53.366Z,209.74
2022-10-02T04:37:38.356Z,189.86
2022-10-02T04:38:23.429Z,209.74
2022-10-02T04:39:08.492Z,195.82
2022-10-02T04:39:53.694Z,191.84
2022-10-02T04:40:38.737Z,194.83
2022-10-02T04:41:23.813Z,204.77
2022-10-02T04:42:08.858Z,195.82
2022-10-02T04:42:53.824Z,200.79
2022-10-02T04:43:38.744Z,208.74
2022-10-02T04:44:24.239Z,217.69
2022-10-02T04:45:08.993Z,183.89
2022-10-02T04:45:53.997Z,171.96
2022-10-02T04:46:39.176Z,176.93
2022-10-02T04:47:24.532Z,197.81
2022-10-02T04:48:09.525Z,199.80
2022-10-02T04:48:54.168Z,180.91
2022-10-02T04:49:39.151Z,182.90
2022-10-02T04:50:24.556Z,184.89
2022-10-02T04:51:09.539Z,190.85
2022-10-02T04:51:54.633Z,198.80
2022-10-02T04:52:39.760Z,193.83
2022-10-02T04:53:24.667Z,187.87
2022-10-02T04:54:09.667Z,195.82
2022-10-02T04:54:54.721Z,169.98
2022-10-02T04:55:39.674Z,175.94
2022-10-02T04:56:24.628Z,146.12
2022-10-02T04:57:09.586Z,164.01
2022-10-02T04:57:54.936Z,189.86
2022-10-02T04:58:39.991Z,187.87
2022-10-02T04:59:25.160Z,209.74
2022-10-02T05:00:10.019Z,182.90
2022-10-02T05:00:54.893Z,176.93
2022-10-02T05:01:40.071Z,175.94
2022-10-02T05:02:25.225Z,180.91
2022-10-02T05:03:10.137Z,196.81
2022-10-02T05:03:55.012Z,177.93
2022-10-02T05:04:40.556Z,203.77
2022-10-02T05:05:25.280Z,216.69
2022-10-02T05:06:10.469Z,207.75
2022-10-02T05:06:55.224Z,194.83
2022-10-02T05:07:40.476Z,192.84
2022-10-02T05:08:25.676Z,185.88
2022-10-02T05:09:10.439Z,192.84
2022-10-02T05:09:55.646Z,200.79
2022-10-02T05:10:40.593Z,204.77
2022-10-02T05:11:25.719Z,211.72
2022-10-02T05:12:10.767Z,216.69
2022-10-02T05:12:55.768Z,204.77
2022-10-02T05:13:40.934Z,189.86
2022-10-02T05:14:26.371Z,200.79
2022-10-02T05:15:11.144Z,213.71
2022-10-02T05:15:56.262Z,186.87
2022-10-02T05:16:41.187Z,194.83
2022-10-02T05:17:26.398Z,188.86
2022-10-02T05:18:13.486Z,185.88
2022-10-02T05:18:56.217Z,204.77
2022-10-02T05:19:41.072Z,194.83
2022-10-02T05:20:26.548Z,185.88
2022-10-02T05:21:11.491Z,207.75
2022-10-02T05:21:56.418Z,223.65
2022-10-02T05:22:41.610Z,204.77
2022-10-02T05:23:26.262Z,193.83
2022-10-02T05:24:11.412Z,190.85
2022-10-02T05:24:56.469Z,217.69
2022-10-02T05:25:41.714Z,193.83
2022-10-02T05:26:26.911Z,204.77
2022-10-02T05:27:11.704Z,178.92
2022-10-02T05:27:56.747Z,181.90
2022-10-02T05:28:41.856Z,168.98
2022-10-02T05:29:27.009Z,182.90
2022-10-02T05:30:11.551Z,179.92
2022-10-02T05:30:57.006Z,165.01
2022-10-02T05:31:41.858Z,189.86
2022-10-02T05:32:27.347Z,176.93
2022-10-02T05:33:11.938Z,214.71
2022-10-02T05:33:57.247Z,209.74
2022-10-02T05:34:42.061Z,191.84
2022-10-02T05:35:27.365Z,208.74
2022-10-02T05:36:11.942Z,200.79
2022-10-02T05:36:57.316Z,196.81
2022-10-02T05:37:42.629Z,195.82
2022-10-02T05:38:28.101Z,208.74
2022-10-02T05:39:12.540Z,216.69
2022-10-02T05:39:57.609Z,201.78
2022-10-02T05:40:42.598Z,203.77
2022-10-02T05:41:27.744Z,213.71
2022-10-02T05:42:12.665Z,215.70
2022-10-02T05:42:57.924Z,206.75
2022-10-02T05:43:43.224Z,212.72
2022-10-02T05:44:28.219Z,204.77
2022-10-02T05:45:12.787Z,221.66
2022-10-02T05:45:57.845Z,209.74
2022-10-02T05:46:42.912Z,210.73
2022-10-02T05:47:27.857Z,225.64
2022-10-02T05:48:13.387Z,214.71
2022-10-02T05:48:57.861Z,225.64
2022-10-02T05:49:43.229Z,211.72
2022-10-02T05:50:28.282Z,246.51
2022-10-02T05:51:13.035Z,225.64
2022-10-02T05:51:58.398Z,222.66
2022-10-02T05:52:43.781Z,208.74
2022-10-02T05:53:28.509Z,212.72
2022-10-02T05:54:13.369Z,231.60
2022-10-02T05:54:58.315Z,220.67
2022-10-02T05:55:43.631Z,215.70
2022-10-02T05:56:28.535Z,238.56
2022-10-02T05:57:13.509Z,200.79
2022-10-02T05:57:58.743Z,237.57
2022-10-02T05:58:43.805Z,230.61
2022-10-02T05:59:29.162Z,209.74
2022-10-02T06:00:13.815Z,230.61
2022-10-02T06:00:58.877Z,194.83
2022-10-02T06:01:43.768Z,232.60
2022-10-02T06:02:29.143Z,219.68
2022-10-02T06:03:14.037Z,209.74
2022-10-02T06:03:59.093Z,244.53
2022-10-02T06:04:44.357Z,197.81
2022-10-02T06:05:29.517Z,190.85
2022-10-02T06:06:14.571Z,218.68
2022-10-02T06:06:59.214Z,265.40
2022-10-02T06:07:44.278Z,236.57
2022-10-02T06:08:32.132Z,213.71
2022-10-02T06:09:18.992Z,242.54
2022-10-02T06:09:59.441Z,232.60
2022-10-02T06:10:44.500Z,246.51
2022-10-02T06:11:29.453Z,247.51
2022-10-02T06:12:14.516Z,239.56
2022-10-02T06:12:59.666Z,218.68
2022-10-02T06:13:44.724Z,218.68
2022-10-02T06:14:29.784Z,236.57
2022-10-02T06:15:15.555Z,218.68
2022-10-02T06:16:00.154Z,239.56
2022-10-02T06:16:45.194Z,238.56
2022-10-02T06:17:30.110Z,208.74
2022-10-02T06:18:14.970Z,195.82
2022-10-02T06:19:00.289Z,219.68
2022-10-02T06:19:45.122Z,185.88
2022-10-02T06:20:30.439Z,228.62
2022-10-02T06:21:15.189Z,215.70
2022-10-02T06:22:00.345Z,217.69
2022-10-02T06:22:45.298Z,196.81
2022-10-02T06:23:30.660Z,215.70
2022-10-02T06:24:15.623Z,228.62
2022-10-02T06:25:00.447Z,220.67
2022-10-02T06:25:45.378Z,223.65
2022-10-02T06:26:30.604Z,242.54
2022-10-02T06:27:16.073Z,222.66
2022-10-02T06:28:00.827Z,229.62
2022-10-02T06:28:45.805Z,225.64
2022-10-02T06:29:30.907Z,221.66
2022-10-02T06:30:15.565Z,233.59
2022-10-02T06:31:01.123Z,244.53
2022-10-02T06:31:46.251Z,225.64
2022-10-02T06:32:31.100Z,218.68
2022-10-02T06:33:15.969Z,248.50
2022-10-02T06:34:01.456Z,230.61
2022-10-02T06:34:48.123Z,258.44
2022-10-02T06:35:31.364Z,262.42
2022-10-02T06:36:16.313Z,233.59
2022-10-02T06:37:01.470Z,235.58
2022-10-02T06:37:46.470Z,244.53
2022-10-02T06:38:31.947Z,227.63
2022-10-02T06:39:16.743Z,229.62
2022-10-02T06:40:01.539Z,224.65
2022-10-02T06:40:46.655Z,223.65
2022-10-02T06:41:32.329Z,208.74
2022-10-02T06:42:16.660Z,228.62
2022-10-02T06:43:02.131Z,242.54
2022-10-02T06:43:46.661Z,237.57
2022-10-02T06:44:31.961Z,237.57
2022-10-02T06:45:17.151Z,246.51
2022-10-02T06:46:02.022Z,244.53
2022-10-02T06:46:50.652Z,246.51
2022-10-02T06:47:32.061Z,242.54
2022-10-02T06:48:16.987Z,229.62
2022-10-02T06:49:01.930Z,236.57
2022-10-02T06:49:47.124Z,240.55
2022-10-02T06:50:32.385Z,239.56
2022-10-02T06:51:17.367Z,242.54
2022-10-02T06:52:02.291Z,254.47
2022-10-02T06:52:47.451Z,233.59
2022-10-02T06:53:32.919Z,236.57
2022-10-02T06:54:17.568Z,233.59
2022-10-02T06:55:02.525Z,232.60
2022-10-02T06:55:47.475Z,203.77
2022-10-02T06:56:32.634Z,198.80
2022-10-02T06:57:17.584Z,230.61
2022-10-02T06:58:02.846Z,249.50
2022-10-02T06:58:48.005Z,259.44
2022-10-02T06:59:33.063Z,247.51
2022-10-02T07:00:17.746Z,261.42
2022-10-02T07:01:02.644Z,266.39
2022-10-02T07:01:47.769Z,272.36
2022-10-02T07:02:33.334Z,252.48
2022-10-02T07:03:18.137Z,257.45
2022-10-02T07:04:03.094Z,255.46
2022-10-02T07:04:47.987Z,272.36
2022-10-02T07:05:33.154Z,272.36
2022-10-02T07:06:18.468Z,263.41
2022-10-02T07:07:03.419Z,264.41
2022-10-02T07:07:48.069Z,255.46
2022-10-02T07:08:34.665Z,253.47
2022-10-02T07:09:18.608Z,260.43
2022-10-02T07:10:03.650Z,270.37
2022-10-02T07:10:48.191Z,230.61
2022-10-02T07:11:33.662Z,253.47
2022-10-02T07:12:18.349Z,248.50
2022-10-02T07:13:03.773Z,256.45
2022-10-02T07:13:48.391Z,267.39
2022-10-02T07:14:34.143Z,246.51
2022-10-02T07:15:18.922Z,263.41
2022-10-02T07:16:03.716Z,249.50
2022-10-02T07:16:49.125Z,240.55
2022-10-02T07:17:34.117Z,245.52
2022-10-02T07:18:19.169Z,262.42
2022-10-02T07:19:03.928Z,268.38
2022-10-02T07:19:49.179Z,257.45
2022-10-02T07:20:34.237Z,273.35
2022-10-02T07:21:19.109Z,251.48
2022-10-02T07:22:20.258Z,256.45
2022-10-02T07:22:49.198Z,258.44
2022-10-02T07:23:34.150Z,266.39
2022-10-02T07:24:19.310Z,247.51
2022-10-02T07:25:04.571Z,256.45
2022-10-02T07:25:49.423Z,264.41
2022-10-02T07:26:34.711Z,237.57
2022-10-02T07:27:19.538Z,240.55
2022-10-02T07:28:04.848Z,244.53
2022-10-02T07:28:49.753Z,245.52
2022-10-02T07:29:34.604Z,233.59
2022-10-02T07:30:19.590Z,267.39
2022-10-02T07:31:04.933Z,233.59
2022-10-02T07:31:49.914Z,246.51
2022-10-02T07:32:34.934Z,228.62
2022-10-02T07:33:20.184Z,243.53
2022-10-02T07:34:05.051Z,246.51
2022-10-02T07:34:49.899Z,248.50
2022-10-02T07:35:34.876Z,236.57
2022-10-02T07:36:20.011Z,252.48
2022-10-02T07:37:05.274Z,244.53
2022-10-02T07:37:50.019Z,219.68
2022-10-02T07:38:35.173Z,229.62
2022-10-02T07:39:20.033Z,246.51
2022-10-02T07:40:05.397Z,242.54
2022-10-02T07:40:50.579Z,246.51
2022-10-02T07:41:35.405Z,234.59
2022-10-02T07:42:20.663Z,262.42
2022-10-02T07:43:05.670Z,236.57
2022-10-02T07:43:50.844Z,235.58
2022-10-02T07:44:35.532Z,236.57
2022-10-02T07:45:20.891Z,244.53
2022-10-02T07:46:07.331Z,260.43
2022-10-02T07:46:50.800Z,246.51
2022-10-02T07:47:36.062Z,243.53
2022-10-02T07:48:21.161Z,244.53
2022-10-02T07:49:06.162Z,236.57
2022-10-02T07:49:51.232Z,239.56
2022-10-02T07:50:35.979Z,252.48
2022-10-02T07:51:21.445Z,234.59
2022-10-02T07:52:06.303Z,226.63
2022-10-02T07:52:51.457Z,222.66
2022-10-02T07:53:35.925Z,249.50
2022-10-02T07:54:21.469Z,239.56
2022-10-02T07:55:06.417Z,235.58
2022-10-02T07:55:51.789Z,234.59
2022-10-02T07:56:36.758Z,252.48
2022-10-02T07:57:21.789Z,246.51
2022-10-02T07:58:07.057Z,246.51
2022-10-02T07:58:51.804Z,234.59
2022-10-02T07:59:36.548Z,259.44
2022-10-02T08:00:21.906Z,236.57
2022-10-02T08:01:06.936Z,256.45
2022-10-02T08:01:51.986Z,227.63
2022-10-02T08:02:36.924Z,241.54
2022-10-02T08:03:22.367Z,234.59
2022-10-02T08:04:07.148Z,242.54
2022-10-02T08:04:52.358Z,240.55
2022-10-02T08:05:37.354Z,250.49
2022-10-02T08:06:22.981Z,232.60
2022-10-02T08:07:07.733Z,248.50
2022-10-02T08:07:52.586Z,244.53
2022-10-02T08:08:37.643Z,263.41
2022-10-02T08:09:22.615Z,250.49
2022-10-02T08:10:07.547Z,236.57
2022-10-02T08:10:53.022Z,248.50
2022-10-02T08:11:37.953Z,250.49
2022-10-02T08:12:23.136Z,244.53
2022-10-02T08:13:08.267Z,248.50
2022-10-02T08:13:53.440Z,215.70
2022-10-02T08:14:38.207Z,253.47
2022-10-02T08:15:23.249Z,253.47
2022-10-02T08:16:08.019Z,271.36
2022-10-02T08:16:53.129Z,271.36
2022-10-02T08:17:38.522Z,268.38
2022-10-02T08:18:34.263Z,266.39
2022-10-02T08:19:08.327Z,257.45
2022-10-02T08:19:53.278Z,262.42
2022-10-02T08:20:38.416Z,260.43
2022-10-02T08:21:23.524Z,253.47
2022-10-02T08:22:08.643Z,263.41
2022-10-02T08:22:53.919Z,266.39
2022-10-02T08:23:38.731Z,253.47
2022-10-02T08:24:24.032Z,258.44
2022-10-02T08:25:09.090Z,262.42
2022-10-02T08:25:53.978Z,260.43
2022-10-02T08:26:39.417Z,262.42
2022-10-02T08:27:24.119Z,255.46
2022-10-02T08:28:09.169Z,254.47
2022-10-02T08:28:53.956Z,260.43
2022-10-02T08:29:39.118Z,257.45
2022-10-02T08:30:24.349Z,255.46
2022-10-02T08:31:09.485Z,252.48
2022-10-02T08:31:54.501Z,236.57
2022-10-02T08:32:39.467Z,216.69
2022-10-02T08:33:24.399Z,212.72
2022-10-02T08:34:09.147Z,224.65
2022-10-02T08:34:54.614Z,245.52
2022-10-02T08:35:39.671Z,255.46
2022-10-02T08:36:24.728Z,242.54
2022-10-02T08:37:09.373Z,246.51
2022-10-02T08:37:54.442Z,238.56
2022-10-02T08:38:40.000Z,249.50
2022-10-02T08:39:24.954Z,252.48
2022-10-02T08:40:09.699Z,239.56
2022-10-02T08:40:54.725Z,254.47
2022-10-02T08:41:39.921Z,238.56
2022-10-02T08:42:24.867Z,248.50
2022-10-02T08:43:10.235Z,239.56
2022-10-02T08:43:55.153Z,257.45
2022-10-02T08:44:40.074Z,237.57
2022-10-02T08:45:25.456Z,244.53
2022-10-02T08:46:10.414Z,247.51
2022-10-02T08:46:55.315Z,263.41
2022-10-02T08:47:40.570Z,247.51
2022-10-02T08:48:25.529Z,232.60
2022-10-02T08:49:10.691Z,259.44
2022-10-02T08:49:55.449Z,249.50
2022-10-02T08:50:40.392Z,256.45
2022-10-02T08:51:25.498Z,254.47
2022-10-02T08:52:10.602Z,253.47
2022-10-02T08:52:55.764Z,241.54
2022-10-02T08:53:41.038Z,252.48
2022-10-02T08:54:25.613Z,252.48
2022-10-02T08:55:11.042Z,258.44
2022-10-02T08:55:56.089Z,239.56
2022-10-02T08:56:40.944Z,252.48
2022-10-02T08:57:26.000Z,245.52
2022-10-02T08:58:10.902Z,256.45
2022-10-02T08:58:56.215Z,250.49
2022-10-02T08:59:41.285Z,220.67
2022-10-02T09:00:26.122Z,277.33
2022-10-02T09:01:11.844Z,272.36
2022-10-02T09:01:59.788Z,239.56
2022-10-02T09:02:41.461Z,253.47
2022-10-02T09:03:26.809Z,262.42
2022-10-02T09:04:11.222Z,254.47
2022-10-02T09:04:56.341Z,235.58
2022-10-02T09:05:41.519Z,268.38
2022-10-02T09:06:26.846Z,253.47
2022-10-02T09:07:12.043Z,262.42
2022-10-02T09:07:56.897Z,250.49
2022-10-02T09:08:41.506Z,244.53
2022-10-02T09:09:26.853Z,250.49
2022-10-02T09:10:12.162Z,256.45
2022-10-02T09:10:56.956Z,237.57
2022-10-02T09:11:41.969Z,255.46
2022-10-02T09:12:27.146Z,259.44
2022-10-02T09:13:12.080Z,246.51
2022-10-02T09:13:57.139Z,238.56
2022-10-02T09:14:42.402Z,251.48
2022-10-02T09:15:27.458Z,236.57
2022-10-02T09:16:12.584Z,258.44
2022-10-02T09:16:57.197Z,253.47
2022-10-02T09:17:42.422Z,239.56
2022-10-02T09:18:27.475Z,215.70
2022-10-02T09:19:12.880Z,231.60
2022-10-02T09:19:57.792Z,266.39
2022-10-02T09:20:42.854Z,254.47
2022-10-02T09:21:27.713Z,236.57
2022-10-02T09:22:12.653Z,255.46